Terminal Aerodrome Forecast
Issued by NWS

Home | Current Version | Previous Version | Text Only | Print | Product List | Glossary On
Versions: 1 2 3 4 5 6 7 8 9 10 11 12 13 14
978
FTUS44 KJAN 231735
TAFGTR
TAF
KGTR 231735Z 2318/2418 21016G30KT 2SM TSRA BKN025CB
     FM232000 22014G26KT P6SM VCTS BKN035CB
     FM232300 22011G20KT P6SM VCTS BKN025CB
     FM241100 27004KT 6SM BR BKN015
     FM241300 30005KT P6SM SHRA VCTS OVC025CB=

USA.gov is the U.S. government's official web portal to all federal, state and local government web resources and services.